Elliot Chaparral Reserve, California Weather observations

Data are for 10 minute period ending at time listed.
 Day   Time   Solar   Ave.   Ave.  Ave.  Vector  Max.   Baro.   Total    
  of    of     Rad.   Air    Rel.  Wind   Wind   Wind  Press.  Precip.   
Year   Day            Temp.  Hum.  Speed  Dir.   Gust                    
2015   (PST)  Kw/m2    F      %     mph   deg.    mph    mb.     in.     
-------------------------------------------------------------------------
 242   20:40   0.00   66.3    86    4.3   236     5.2   983.2    0.00 
 242   20:50   0.00   66.0    86    5.3   235     6.0   983.3    0.00 
 242   21:00   0.00   65.9    87    4.9   232     5.6   983.2    0.00 
 242   21:10   0.00   65.8    87    5.0   236     6.2   983.1    0.00 
 242   21:20   0.00   65.7    87    5.0   240     5.9   983.1    0.00 
 242   21:30   0.00   65.6    87    3.7   224     4.7   983.1    0.00 
 242   21:40   0.00   65.6    87    2.6   222     3.9   983.0    0.00 
 242   21:50   0.00   65.7    87    2.7   231     3.3   983.0    0.00 
 242   22:00   0.00   65.5    87    3.0   224     4.5   983.1    0.00 
 242   22:10   0.00   65.1    88    3.6   228     5.0   982.9    0.00 
 242   22:20   0.00   65.0    88    3.7   234     4.8   982.9    0.00 
 242   22:30   0.00   64.9    89    4.9   247     5.5   983.0    0.00 
 242   22:40   0.00   64.8    89    3.7   233     4.9   983.0    0.00 
 242   22:50   0.00   64.6    89    2.3   189     3.7   982.9    0.00 
 242   23:00   0.00   64.5    89    2.6   214     4.2   983.0    0.00 
 242   23:10   0.00   64.5    90    3.0   222     4.2   983.1    0.00 
 242   23:20   0.00   64.2    90    1.9   197     2.5   983.1    0.00 
 242   23:30   0.00   64.1    90    1.7   164     2.5   983.1    0.00 
 242   23:40   0.00   64.0    90    1.9   134     2.7   982.9    0.00 
 242   23:50   0.00   63.9    91    1.7   176     2.3   982.9    0.00 
 243    0:00   0.00   64.0    91    1.8   152     2.3   982.8    0.00 
 243    0:10   0.00   64.0    91    1.7   214     2.1   982.8    0.00 
 243    0:20   0.00   64.1    91    1.6   252     2.0   982.8    0.00 
 243    0:30   0.00   64.2    91    1.0   260     1.7   982.7    0.00 
 243    0:40   0.00   64.1    91    1.6   271     2.6   982.7    0.00 
 243    0:50   0.00   64.0    91    2.7   269     3.1   982.8    0.00 
 243    1:00   0.00   63.9    91    1.5   254     2.8   982.7    0.00 
 243    1:10   0.00   63.6    91    0.8   220     1.7   982.6    0.00 
 243    1:20   0.00   63.4    92    1.9   113     2.6   982.5    0.00 
 243    1:30   0.00   63.1    92    1.7   139     2.5   982.5    0.00 
 243    1:40   0.00   63.5    92    2.3   161     3.2   982.5    0.00 
 243    1:50   0.00   63.3    92    3.4   163     4.2   982.5    0.00 
 243    2:00   0.00   63.3    92    3.7   167     4.9   982.5    0.00 
 243    2:10   0.00   63.4    92    4.6   176     5.7   982.5    0.00 
 243    2:20   0.00   63.3    93    5.1   176     6.6   982.5    0.00 
 243    2:30   0.00   63.4    93    4.7   190     6.3   982.5    0.00 
 243    2:40   0.00   63.5    93    4.4   188     6.0   982.6    0.00 
 243    2:50   0.00   63.8    93    4.1   182     6.1   982.5    0.00 
 243    3:00   0.00   64.0    92    3.2   193     4.5   982.5    0.00 
 243    3:10   0.00   64.2    92    3.0   182     4.6   982.6    0.00 
 243    3:20   0.00   64.3    92    4.7   199     7.0   982.6    0.00 
 243    3:30   0.00   64.4    91    5.9   201     7.8   982.7    0.00 
 243    3:40   0.00   64.4    91    5.0   190     7.6   982.6    0.00 
 243    3:50   0.00   64.5    91    5.1   178     7.5   982.6    0.00 
 243    4:00   0.00   64.6    91    4.6   199     7.0   982.8    0.00 
 243    4:10   0.00   64.5    91    6.5   197     9.7   982.9    0.00 
 243    4:20   0.00   64.5    90    5.4   190     8.1   982.9    0.00 
 243    4:30   0.00   64.7    89    3.7   178     4.9   983.0    0.00 
 243    4:40   0.00   64.7    88    4.4   194     6.3   983.0    0.00 
 243    4:50   0.00   64.6    88    4.8   175     9.6   983.1    0.00 
 243    5:00   0.00   64.7    87    5.1   174     9.7   983.0    0.00 
 243    5:10   0.00   64.5    87    5.5   178     8.4   983.1    0.00 
 243    5:20   0.00   64.6    86    6.2   159     8.8   983.1    0.00 
 243    5:30   0.00   64.9    86    5.7   165     7.6   983.3    0.00 
 243    5:40   0.00   65.1    86    5.2   165     7.0   983.4    0.00 
 243    5:50   0.01   65.5    85    5.0   178     7.5   983.5    0.00 
 243    6:00   0.01   65.7    84    6.3   187     8.7   983.6    0.00 
 243    6:10   0.02   65.9    84    6.6   210     9.7   983.7    0.00 
 243    6:20   0.03   66.0    83    7.5   195    10.3   983.8    0.00 
 243    6:30   0.01   66.1    83    6.1   186     9.7   983.8    0.00 
 243    6:40   0.02   66.3    84    5.5   176     8.5   983.9    0.00 
 243    6:50   0.05   66.5    83    6.5   182    10.1   984.1    0.00 
 243    7:00   0.05   66.7    82    8.3   191    11.2   984.2    0.00 
 243    7:10   0.06   66.9    82    6.6   164     9.9   984.3    0.00 
 243    7:20   0.08   67.3    81    7.7   160    11.6   984.2    0.00 
 243    7:30   0.09   67.5    80    7.4   160    12.9   984.3    0.00 
 243    7:40   0.08   67.9    80    7.5   174    10.3   984.4    0.00 
 243    7:50   0.12   67.9    79    7.8   173    11.3   984.5    0.00 
 243    8:00   0.17   68.4    78    9.1   160    11.7   984.5    0.00 
 243    8:10   0.22   68.9    77    7.0   176    10.4   984.5    0.00 
 243    8:20   0.24   69.7    75    7.8   186    12.6   984.5    0.00 
 243    8:30   0.31   70.1    73    9.7   197    15.6   984.7    0.00 
 243    8:40   0.39   70.9    71    8.8   178    14.2   984.8    0.00 
 243    8:50   0.52   72.1    69    7.1   181    11.3   984.8    0.00 
 243    9:00   0.63   72.8    67    9.5   198    15.7   984.8    0.00 
 243    9:10   0.57   72.2    68    9.2   196    15.4   984.8    0.00 
 243    9:20   0.72   74.1    64    5.8   171    12.2   984.8    0.00 
 243    9:30   0.74   75.3    62    6.4   207    13.1   984.8    0.00 
 243    9:40   0.77   75.3    61    6.3   199    11.8   984.7    0.00 
 243    9:50   0.79   76.9    58    6.6   198    13.1   984.5    0.00 
 243   10:00   0.81   76.7    58    7.5   212    12.6   984.4    0.00 
 243   10:10   0.82   77.7    55    5.6   178    11.2   984.3    0.00 
 243   10:20   0.84   77.8    55    4.9   192    12.6   984.2    0.00 
 243   10:30   0.85   79.1    52    6.8   207    11.8   984.1    0.00 
 243   10:40   0.87   79.0    52    7.2   211    12.1   984.0    0.00 
 243   10:50   0.88   78.3    54    8.5   233    14.7   983.9    0.00 
 243   11:00   0.90   79.8    50    6.7   195    11.2   983.8    0.00 
 243   11:10   0.90   80.0    49    9.3   209    15.8   983.7    0.00 
 243   11:20   0.91   80.2    49    8.8   214    15.2   983.7    0.00 
 243   11:30   0.92   79.8    50    9.6   200    14.5   983.7    0.00 
 243   11:40   0.90   79.7    50   10.0   212    16.6   983.7    0.00 
 243   11:50   0.89   78.7    52    9.0   246    14.9   983.6    0.00 
 243   12:00   0.92   80.7    47    8.8   219    12.5   983.5    0.00 
 243   12:10   0.92   81.0    47   10.2   223    15.2   983.5    0.00 
 243   12:20   0.91   79.9    48    9.1   233    14.5   983.4    0.00 
 243   12:30   0.90   80.1    48   10.6   211    16.4   983.3    0.00 
 243   12:40   0.90   80.3    48   11.6   224    18.3   983.3    0.00 
 243   12:50   0.88   80.3    48   11.0   225    19.0   983.2    0.00 
 243   13:00   0.88   80.5    48   11.2   240    19.6   983.1    0.00 
 243   13:10   0.86   80.5    47   10.9   228    16.1   983.1    0.00 
 243   13:20   0.85   80.4    47   10.3   214    15.1   983.1    0.00 
 243   13:30   0.83   80.3    49   10.9   242    15.9   983.0    0.00 
 243   13:40   0.81   80.6    48   10.3   230    15.1   982.8    0.00 
 243   13:50   0.79   80.0    48   10.5   229    15.3   982.8    0.00 
 243   14:00   0.77   80.0    49   11.3   223    16.4   982.7    0.00 
 243   14:10   0.74   80.3    48   10.6   222    15.3   982.7    0.00 
 243   14:20   0.72   79.7    50   10.4   235    17.5   982.6    0.00 
 243   14:30   0.69   79.1    50   10.0   218    16.7   982.5    0.00 
 243   14:40   0.67   79.4    50   11.0   242    15.8   982.4    0.00 
 243   14:50   0.64   79.7    49    9.4   237    14.6   982.3    0.00 
 243   15:00   0.61   80.4    46    8.7   216    15.1   982.2    0.00 
 243   15:10   0.58   80.3    45    9.7   205    13.6   982.2    0.00 
 243   15:20   0.55   79.7    47    9.7   201    15.1   982.2    0.00 
 243   15:30   0.52   79.2    47    8.9   201    16.9   982.2    0.00 
 243   15:40   0.48   79.5    48    9.6   207    15.3   982.2    0.00 
 243   15:50   0.45   78.2    51    9.2   222    14.8   982.2    0.00 
 243   16:00   0.41   78.5    51    8.9   215    13.9   982.2    0.00 
 243   16:10   0.37   77.5    54    9.8   222    16.7   982.2    0.00 
 243   16:20   0.34   77.4    54    9.8   208    14.7   982.2    0.00 
 243   16:30   0.30   76.8    55    9.5   215    15.1   982.2    0.00 
 243   16:40   0.26   76.3    56   10.1   211    14.2   982.2    0.00 
 243   16:50   0.23   75.5    59   10.1   211    16.1   982.2    0.00 
 243   17:00   0.19   74.9    61    9.5   216    13.4   982.4    0.00 
 243   17:10   0.16   74.3    62    9.0   212    13.4   982.4    0.00 
 243   17:20   0.12   73.5    64   10.3   205    13.4   982.4    0.00 
 243   17:30   0.09   72.6    66    9.2   206    13.7   982.5    0.00 
 243   17:40   0.07   71.6    68   10.1   199    13.7   982.6    0.00 
 243   17:50   0.04   70.6    70    9.6   199    14.2   982.7    0.00 
 243   18:00   0.02   69.5    73   10.2   212    14.3   982.8    0.00 
 243   18:10   0.01   68.3    75   10.2   202    13.3   982.8    0.00 
 243   18:20   0.00   67.6    77   10.4   192    12.2   982.9    0.00 
 243   18:30   0.00   67.3    78    9.7   194    11.8   983.0    0.00 
 243   18:40   0.00   66.7    79    8.5   193    11.2   983.1    0.00 
 243   18:50   0.00   66.3    80    7.0   199     9.3   983.1    0.00 
 243   19:00   0.00   66.0    80    6.4   204     8.3   983.2    0.00 
 243   19:10   0.00   65.8    81    7.5   195     9.9   983.2    0.00 
 243   19:20   0.00   65.6    82    6.8   199     8.5   983.4    0.00 
 243   19:30   0.00   65.4    82    6.6   190     9.1   983.5    0.00 
 243   19:40   0.00   65.4    83    7.4   185     9.1   983.7    0.00 
 243   19:50   0.00   65.2    83    7.1   188     8.5   983.7    0.00 
 243   20:00   0.00   65.1    84    7.4   184    10.2   983.8    0.00 
 243   20:10   0.00   65.0    84    7.6   184     9.4   983.9    0.00 
 243   20:20   0.00   65.0    84    6.6   185     9.7   984.0    0.00 
 243   20:30   0.00   64.8    84    5.5   182     7.2   984.1    0.00 

Return to Elliot Chaparral Reserve graphs page.


Western Regional Climate Center,wrcc@dri.edu